sensor_id;sensor_type;location;lat;lon;timestamp;temperature;humidity
17442;DHT22;8838;50.144;8.176;2023-04-24T00:00:16;9.80;99.90
17442;DHT22;8838;50.144;8.176;2023-04-24T00:02:44;9.80;99.90
17442;DHT22;8838;50.144;8.176;2023-04-24T00:05:13;9.80;99.90
17442;DHT22;8838;50.144;8.176;2023-04-24T00:07:40;9.80;99.90
17442;DHT22;8838;50.144;8.176;2023-04-24T00:10:08;9.80;99.90
17442;DHT22;8838;50.144;8.176;2023-04-24T00:12:35;9.80;99.90
17442;DHT22;8838;50.144;8.176;2023-04-24T00:15:02;9.90;99.90
17442;DHT22;8838;50.144;8.176;2023-04-24T00:17:31;9.70;99.90
17442;DHT22;8838;50.144;8.176;2023-04-24T00:19:57;9.70;99.90
17442;DHT22;8838;50.144;8.176;2023-04-24T00:22:24;9.60;99.90
17442;DHT22;8838;50.144;8.176;2023-04-24T00:24:51;9.60;99.90
17442;DHT22;8838;50.144;8.176;2023-04-24T00:27:18;9.60;99.90
17442;DHT22;8838;50.144;8.176;2023-04-24T00:29:45;9.50;99.90
17442;DHT22;8838;50.144;8.176;2023-04-24T00:32:12;9.50;99.90
17442;DHT22;8838;50.144;8.176;2023-04-24T00:34:41;9.40;99.90
17442;DHT22;8838;50.144;8.176;2023-04-24T00:37:08;9.50;99.90
17442;DHT22;8838;50.144;8.176;2023-04-24T00:39:34;9.60;99.90
17442;DHT22;8838;50.144;8.176;2023-04-24T00:42:01;9.60;99.90
17442;DHT22;8838;50.144;8.176;2023-04-24T00:44:28;9.60;99.90
17442;DHT22;8838;50.144;8.176;2023-04-24T00:46:55;9.60;99.90
17442;DHT22;8838;50.144;8.176;2023-04-24T00:49:23;9.50;99.90
17442;DHT22;8838;50.144;8.176;2023-04-24T00:51:51;9.60;99.90
17442;DHT22;8838;50.144;8.176;2023-04-24T00:54:19;9.60;99.90
17442;DHT22;8838;50.144;8.176;2023-04-24T00:56:46;9.50;99.90
17442;DHT22;8838;50.144;8.176;2023-04-24T00:59:14;9.50;99.90
17442;DHT22;8838;50.144;8.176;2023-04-24T01:01:43;9.50;99.90
17442;DHT22;8838;50.144;8.176;2023-04-24T01:04:11;9.50;99.90
17442;DHT22;8838;50.144;8.176;2023-04-24T01:06:39;9.50;99.90
17442;DHT22;8838;50.144;8.176;2023-04-24T01:09:08;9.50;99.90
17442;DHT22;8838;50.144;8.176;2023-04-24T01:11:36;9.50;99.90
17442;DHT22;8838;50.144;8.176;2023-04-24T01:14:03;9.50;99.90
17442;DHT22;8838;50.144;8.176;2023-04-24T01:16:30;9.50;99.90
17442;DHT22;8838;50.144;8.176;2023-04-24T01:18:57;9.50;99.90
17442;DHT22;8838;50.144;8.176;2023-04-24T01:21:26;9.50;99.90
17442;DHT22;8838;50.144;8.176;2023-04-24T01:23:55;9.50;99.90
17442;DHT22;8838;50.144;8.176;2023-04-24T01:26:22;9.60;99.90
17442;DHT22;8838;50.144;8.176;2023-04-24T01:28:51;9.60;99.90
17442;DHT22;8838;50.144;8.176;2023-04-24T01:31:18;9.60;99.90
17442;DHT22;8838;50.144;8.176;2023-04-24T01:33:46;9.60;99.90
17442;DHT22;8838;50.144;8.176;2023-04-24T01:36:13;9.60;99.90
17442;DHT22;8838;50.144;8.176;2023-04-24T01:38:40;9.60;99.90
17442;DHT22;8838;50.144;8.176;2023-04-24T01:41:09;9.50;99.90
17442;DHT22;8838;50.144;8.176;2023-04-24T01:43:36;9.50;99.90
17442;DHT22;8838;50.144;8.176;2023-04-24T01:46:03;9.60;99.90
17442;DHT22;8838;50.144;8.176;2023-04-24T01:48:30;9.40;99.90
17442;DHT22;8838;50.144;8.176;2023-04-24T01:50:57;9.40;99.90
17442;DHT22;8838;50.144;8.176;2023-04-24T01:53:25;9.40;99.90
17442;DHT22;8838;50.144;8.176;2023-04-24T01:55:52;9.40;99.90
17442;DHT22;8838;50.144;8.176;2023-04-24T01:58:20;9.40;99.90
17442;DHT22;8838;50.144;8.176;2023-04-24T02:00:47;9.50;99.90
17442;DHT22;8838;50.144;8.176;2023-04-24T02:03:14;9.40;99.90
17442;DHT22;8838;50.144;8.176;2023-04-24T02:05:43;9.50;99.90
17442;DHT22;8838;50.144;8.176;2023-04-24T02:08:10;9.50;99.90
17442;DHT22;8838;50.144;8.176;2023-04-24T02:10:37;9.40;99.90
17442;DHT22;8838;50.144;8.176;2023-04-24T02:13:04;9.40;99.90
17442;DHT22;8838;50.144;8.176;2023-04-24T02:15:32;9.40;99.90
17442;DHT22;8838;50.144;8.176;2023-04-24T02:17:59;9.30;99.90
17442;DHT22;8838;50.144;8.176;2023-04-24T02:20:26;9.30;99.90
17442;DHT22;8838;50.144;8.176;2023-04-24T02:22:53;9.30;99.90
17442;DHT22;8838;50.144;8.176;2023-04-24T02:25:20;9.20;99.90
17442;DHT22;8838;50.144;8.176;2023-04-24T02:27:47;9.20;99.90
17442;DHT22;8838;50.144;8.176;2023-04-24T02:30:14;9.20;99.90
17442;DHT22;8838;50.144;8.176;2023-04-24T02:32:42;9.20;99.90
17442;DHT22;8838;50.144;8.176;2023-04-24T02:35:10;9.10;99.90
17442;DHT22;8838;50.144;8.176;2023-04-24T02:37:36;9.10;99.90
17442;DHT22;8838;50.144;8.176;2023-04-24T02:40:04;9.10;99.90
17442;DHT22;8838;50.144;8.176;2023-04-24T02:42:31;9.10;99.90
17442;DHT22;8838;50.144;8.176;2023-04-24T02:44:58;9.00;99.90
17442;DHT22;8838;50.144;8.176;2023-04-24T02:47:25;9.00;99.90
17442;DHT22;8838;50.144;8.176;2023-04-24T02:49:53;9.00;99.90
17442;DHT22;8838;50.144;8.176;2023-04-24T02:52:20;9.00;99.90
17442;DHT22;8838;50.144;8.176;2023-04-24T02:54:47;9.00;99.90
17442;DHT22;8838;50.144;8.176;2023-04-24T02:57:14;9.00;99.90
17442;DHT22;8838;50.144;8.176;2023-04-24T02:59:41;9.00;99.90
17442;DHT22;8838;50.144;8.176;2023-04-24T03:02:08;9.00;99.90
17442;DHT22;8838;50.144;8.176;2023-04-24T03:04:35;8.90;99.90
17442;DHT22;8838;50.144;8.176;2023-04-24T03:07:03;8.90;99.90
17442;DHT22;8838;50.144;8.176;2023-04-24T03:09:30;8.90;99.90
17442;DHT22;8838;50.144;8.176;2023-04-24T03:11:56;8.90;99.90
17442;DHT22;8838;50.144;8.176;2023-04-24T03:14:23;8.90;99.90
17442;DHT22;8838;50.144;8.176;2023-04-24T03:16:50;8.90;99.90
17442;DHT22;8838;50.144;8.176;2023-04-24T03:19:17;8.90;99.90
17442;DHT22;8838;50.144;8.176;2023-04-24T03:21:44;8.90;99.90
17442;DHT22;8838;50.144;8.176;2023-04-24T03:24:12;8.90;99.90
17442;DHT22;8838;50.144;8.176;2023-04-24T03:26:39;8.90;99.90
17442;DHT22;8838;50.144;8.176;2023-04-24T03:29:06;8.90;99.90
17442;DHT22;8838;50.144;8.176;2023-04-24T03:31:32;8.90;99.90
17442;DHT22;8838;50.144;8.176;2023-04-24T03:33:59;8.80;99.90
17442;DHT22;8838;50.144;8.176;2023-04-24T03:36:26;8.80;99.90
17442;DHT22;8838;50.144;8.176;2023-04-24T03:38:53;8.80;99.90
17442;DHT22;8838;50.144;8.176;2023-04-24T03:41:21;8.60;99.90
17442;DHT22;8838;50.144;8.176;2023-04-24T03:43:48;8.60;99.90
17442;DHT22;8838;50.144;8.176;2023-04-24T03:46:15;8.50;99.90
17442;DHT22;8838;50.144;8.176;2023-04-24T03:48:42;8.50;99.90
17442;DHT22;8838;50.144;8.176;2023-04-24T03:51:08;8.50;99.90
17442;DHT22;8838;50.144;8.176;2023-04-24T03:53:35;8.40;99.90
17442;DHT22;8838;50.144;8.176;2023-04-24T03:56:02;8.30;99.90
17442;DHT22;8838;50.144;8.176;2023-04-24T03:58:30;8.20;99.90
17442;DHT22;8838;50.144;8.176;2023-04-24T04:00:57;8.20;99.90
17442;DHT22;8838;50.144;8.176;2023-04-24T04:03:24;8.10;99.90
17442;DHT22;8838;50.144;8.176;2023-04-24T04:05:51;8.10;99.90
17442;DHT22;8838;50.144;8.176;2023-04-24T04:08:19;8.10;99.90
17442;DHT22;8838;50.144;8.176;2023-04-24T04:10:46;8.10;99.90
17442;DHT22;8838;50.144;8.176;2023-04-24T04:13:15;8.10;99.90
17442;DHT22;8838;50.144;8.176;2023-04-24T04:15:43;8.00;99.90
17442;DHT22;8838;50.144;8.176;2023-04-24T04:18:10;8.00;99.90
17442;DHT22;8838;50.144;8.176;2023-04-24T04:20:37;7.90;99.90
17442;DHT22;8838;50.144;8.176;2023-04-24T04:23:04;7.90;99.90
17442;DHT22;8838;50.144;8.176;2023-04-24T04:25:30;7.80;99.90
17442;DHT22;8838;50.144;8.176;2023-04-24T04:27:58;7.80;99.90
17442;DHT22;8838;50.144;8.176;2023-04-24T04:30:25;7.70;99.90
17442;DHT22;8838;50.144;8.176;2023-04-24T04:32:53;7.70;99.90
17442;DHT22;8838;50.144;8.176;2023-04-24T04:35:20;7.70;99.90
17442;DHT22;8838;50.144;8.176;2023-04-24T04:37:47;7.60;99.90
17442;DHT22;8838;50.144;8.176;2023-04-24T04:40:14;7.60;99.90
17442;DHT22;8838;50.144;8.176;2023-04-24T04:42:41;7.60;99.90
17442;DHT22;8838;50.144;8.176;2023-04-24T04:45:08;7.50;99.90
17442;DHT22;8838;50.144;8.176;2023-04-24T04:47:37;7.50;99.90
17442;DHT22;8838;50.144;8.176;2023-04-24T04:50:07;7.50;99.90
17442;DHT22;8838;50.144;8.176;2023-04-24T04:52:34;7.50;99.90
17442;DHT22;8838;50.144;8.176;2023-04-24T04:55:00;7.60;99.90
17442;DHT22;8838;50.144;8.176;2023-04-24T04:57:27;7.60;99.90
17442;DHT22;8838;50.144;8.176;2023-04-24T04:59:55;7.60;99.90
17442;DHT22;8838;50.144;8.176;2023-04-24T05:02:22;7.60;99.90
17442;DHT22;8838;50.144;8.176;2023-04-24T05:04:49;7.60;99.90
17442;DHT22;8838;50.144;8.176;2023-04-24T05:07:17;7.50;99.90
17442;DHT22;8838;50.144;8.176;2023-04-24T05:09:44;7.50;99.90
17442;DHT22;8838;50.144;8.176;2023-04-24T05:12:11;7.40;99.90
17442;DHT22;8838;50.144;8.176;2023-04-24T05:14:38;7.30;99.90
17442;DHT22;8838;50.144;8.176;2023-04-24T05:17:04;7.30;99.90
17442;DHT22;8838;50.144;8.176;2023-04-24T05:19:31;7.20;99.90
17442;DHT22;8838;50.144;8.176;2023-04-24T05:22:01;7.20;99.90
17442;DHT22;8838;50.144;8.176;2023-04-24T05:24:31;7.30;99.90
17442;DHT22;8838;50.144;8.176;2023-04-24T05:26:58;7.40;99.90
17442;DHT22;8838;50.144;8.176;2023-04-24T05:29:25;7.40;99.90
17442;DHT22;8838;50.144;8.176;2023-04-24T05:31:52;7.40;99.90
17442;DHT22;8838;50.144;8.176;2023-04-24T05:34:19;7.50;99.90
17442;DHT22;8838;50.144;8.176;2023-04-24T05:36:46;7.40;99.90
17442;DHT22;8838;50.144;8.176;2023-04-24T05:39:13;7.50;99.90
17442;DHT22;8838;50.144;8.176;2023-04-24T05:41:41;7.50;99.90
17442;DHT22;8838;50.144;8.176;2023-04-24T05:44:08;7.50;99.90
17442;DHT22;8838;50.144;8.176;2023-04-24T05:46:35;7.60;99.90
17442;DHT22;8838;50.144;8.176;2023-04-24T05:49:02;7.60;99.90
17442;DHT22;8838;50.144;8.176;2023-04-24T05:51:29;7.70;99.90
17442;DHT22;8838;50.144;8.176;2023-04-24T05:53:57;7.80;99.90
17442;DHT22;8838;50.144;8.176;2023-04-24T05:56:24;7.80;99.90
17442;DHT22;8838;50.144;8.176;2023-04-24T05:58:52;7.70;99.90
17442;DHT22;8838;50.144;8.176;2023-04-24T06:01:19;7.70;99.90
17442;DHT22;8838;50.144;8.176;2023-04-24T06:03:46;7.80;99.90
17442;DHT22;8838;50.144;8.176;2023-04-24T06:06:12;7.90;99.90
17442;DHT22;8838;50.144;8.176;2023-04-24T06:08:41;8.00;99.90
17442;DHT22;8838;50.144;8.176;2023-04-24T06:11:09;8.10;99.90
17442;DHT22;8838;50.144;8.176;2023-04-24T06:13:36;8.20;99.90
17442;DHT22;8838;50.144;8.176;2023-04-24T06:16:05;8.20;99.90
17442;DHT22;8838;50.144;8.176;2023-04-24T06:18:31;8.30;99.90
17442;DHT22;8838;50.144;8.176;2023-04-24T06:20:58;8.50;99.90
17442;DHT22;8838;50.144;8.176;2023-04-24T06:23:25;8.40;99.90
17442;DHT22;8838;50.144;8.176;2023-04-24T06:25:52;8.30;99.90
17442;DHT22;8838;50.144;8.176;2023-04-24T06:28:19;8.40;99.90
17442;DHT22;8838;50.144;8.176;2023-04-24T06:30:46;8.40;99.90
17442;DHT22;8838;50.144;8.176;2023-04-24T06:33:14;8.40;99.90
17442;DHT22;8838;50.144;8.176;2023-04-24T06:35:41;8.40;99.90
17442;DHT22;8838;50.144;8.176;2023-04-24T06:38:07;8.50;99.90
17442;DHT22;8838;50.144;8.176;2023-04-24T06:40:34;8.70;99.90
17442;DHT22;8838;50.144;8.176;2023-04-24T06:43:01;8.80;99.90
17442;DHT22;8838;50.144;8.176;2023-04-24T06:45:28;8.90;99.90
17442;DHT22;8838;50.144;8.176;2023-04-24T06:47:55;8.90;99.90
17442;DHT22;8838;50.144;8.176;2023-04-24T06:50:23;9.10;99.90
17442;DHT22;8838;50.144;8.176;2023-04-24T06:52:50;9.20;99.90
17442;DHT22;8838;50.144;8.176;2023-04-24T06:55:17;9.10;99.90
17442;DHT22;8838;50.144;8.176;2023-04-24T06:57:44;9.10;99.90
17442;DHT22;8838;50.144;8.176;2023-04-24T07:00:12;9.10;99.90
17442;DHT22;8838;50.144;8.176;2023-04-24T07:02:39;9.20;99.90
17442;DHT22;8838;50.144;8.176;2023-04-24T07:05:06;9.20;99.90
17442;DHT22;8838;50.144;8.176;2023-04-24T07:07:35;9.10;99.90
17442;DHT22;8838;50.144;8.176;2023-04-24T07:10:04;9.10;99.90
17442;DHT22;8838;50.144;8.176;2023-04-24T07:12:31;9.10;99.90
17442;DHT22;8838;50.144;8.176;2023-04-24T07:14:58;9.30;99.90
17442;DHT22;8838;50.144;8.176;2023-04-24T07:17:25;9.70;99.90
17442;DHT22;8838;50.144;8.176;2023-04-24T07:19:52;10.00;99.90
17442;DHT22;8838;50.144;8.176;2023-04-24T07:22:19;10.20;99.90
17442;DHT22;8838;50.144;8.176;2023-04-24T07:24:47;10.30;99.90
17442;DHT22;8838;50.144;8.176;2023-04-24T07:27:14;10.50;99.90
17442;DHT22;8838;50.144;8.176;2023-04-24T07:29:41;10.50;99.90
17442;DHT22;8838;50.144;8.176;2023-04-24T07:32:08;10.50;99.90
17442;DHT22;8838;50.144;8.176;2023-04-24T07:34:35;10.60;99.90
17442;DHT22;8838;50.144;8.176;2023-04-24T07:37:02;10.80;99.90
17442;DHT22;8838;50.144;8.176;2023-04-24T07:39:30;10.70;99.90
17442;DHT22;8838;50.144;8.176;2023-04-24T07:41:58;10.50;99.90
17442;DHT22;8838;50.144;8.176;2023-04-24T07:44:27;10.40;99.90
17442;DHT22;8838;50.144;8.176;2023-04-24T07:46:53;10.90;99.90
17442;DHT22;8838;50.144;8.176;2023-04-24T07:49:20;11.40;99.90
17442;DHT22;8838;50.144;8.176;2023-04-24T07:51:48;11.40;99.90
17442;DHT22;8838;50.144;8.176;2023-04-24T07:54:15;11.80;99.90
17442;DHT22;8838;50.144;8.176;2023-04-24T07:56:43;12.10;99.90
17442;DHT22;8838;50.144;8.176;2023-04-24T07:59:12;12.10;99.90
17442;DHT22;8838;50.144;8.176;2023-04-24T08:01:39;11.50;99.90
17442;DHT22;8838;50.144;8.176;2023-04-24T08:04:06;10.80;99.90
17442;DHT22;8838;50.144;8.176;2023-04-24T08:06:35;10.50;99.90
17442;DHT22;8838;50.144;8.176;2023-04-24T08:09:05;10.30;99.90
17442;DHT22;8838;50.144;8.176;2023-04-24T08:11:32;10.10;99.90
17442;DHT22;8838;50.144;8.176;2023-04-24T08:13:59;10.00;99.90
17442;DHT22;8838;50.144;8.176;2023-04-24T08:16:28;10.00;99.90
17442;DHT22;8838;50.144;8.176;2023-04-24T08:18:55;10.10;99.90
17442;DHT22;8838;50.144;8.176;2023-04-24T08:21:22;10.10;99.90
17442;DHT22;8838;50.144;8.176;2023-04-24T08:23:51;10.20;99.90
17442;DHT22;8838;50.144;8.176;2023-04-24T08:26:18;10.20;99.90
17442;DHT22;8838;50.144;8.176;2023-04-24T08:28:44;10.30;99.90
17442;DHT22;8838;50.144;8.176;2023-04-24T08:31:11;10.40;99.90
17442;DHT22;8838;50.144;8.176;2023-04-24T08:33:40;10.30;99.90
17442;DHT22;8838;50.144;8.176;2023-04-24T08:36:07;10.40;99.90
17442;DHT22;8838;50.144;8.176;2023-04-24T08:38:34;10.30;99.90
17442;DHT22;8838;50.144;8.176;2023-04-24T08:41:01;10.30;99.90
17442;DHT22;8838;50.144;8.176;2023-04-24T08:43:29;10.40;99.90
17442;DHT22;8838;50.144;8.176;2023-04-24T08:45:57;10.30;99.90
17442;DHT22;8838;50.144;8.176;2023-04-24T08:48:25;10.30;99.90
17442;DHT22;8838;50.144;8.176;2023-04-24T08:50:54;10.30;99.90
17442;DHT22;8838;50.144;8.176;2023-04-24T08:53:22;10.20;99.90
17442;DHT22;8838;50.144;8.176;2023-04-24T08:55:51;9.90;99.90
17442;DHT22;8838;50.144;8.176;2023-04-24T08:58:20;9.80;99.90
17442;DHT22;8838;50.144;8.176;2023-04-24T09:00:48;9.80;99.90
17442;DHT22;8838;50.144;8.176;2023-04-24T09:03:16;9.70;99.90
17442;DHT22;8838;50.144;8.176;2023-04-24T09:05:43;9.70;99.90
17442;DHT22;8838;50.144;8.176;2023-04-24T09:08:14;9.70;99.90
17442;DHT22;8838;50.144;8.176;2023-04-24T09:10:42;9.70;99.90
17442;DHT22;8838;50.144;8.176;2023-04-24T09:13:09;9.70;99.90
17442;DHT22;8838;50.144;8.176;2023-04-24T09:15:37;9.70;99.90
17442;DHT22;8838;50.144;8.176;2023-04-24T09:18:05;9.70;99.90
17442;DHT22;8838;50.144;8.176;2023-04-24T09:20:32;9.80;99.90
17442;DHT22;8838;50.144;8.176;2023-04-24T09:23:01;9.70;99.90
17442;DHT22;8838;50.144;8.176;2023-04-24T09:25:32;9.70;99.90
17442;DHT22;8838;50.144;8.176;2023-04-24T09:28:02;9.70;99.90
17442;DHT22;8838;50.144;8.176;2023-04-24T09:30:29;9.60;99.90
17442;DHT22;8838;50.144;8.176;2023-04-24T09:33:12;9.50;99.90
17442;DHT22;8838;50.144;8.176;2023-04-24T09:35:41;9.50;99.90
17442;DHT22;8838;50.144;8.176;2023-04-24T09:38:09;9.50;99.90
17442;DHT22;8838;50.144;8.176;2023-04-24T09:40:37;9.50;99.90
17442;DHT22;8838;50.144;8.176;2023-04-24T09:43:04;9.50;99.90
17442;DHT22;8838;50.144;8.176;2023-04-24T09:45:37;9.50;99.90
17442;DHT22;8838;50.144;8.176;2023-04-24T09:48:05;9.60;99.90
17442;DHT22;8838;50.144;8.176;2023-04-24T09:50:33;9.50;99.90
17442;DHT22;8838;50.144;8.176;2023-04-24T09:53:03;9.40;99.90
17442;DHT22;8838;50.144;8.176;2023-04-24T09:55:30;9.40;99.90
17442;DHT22;8838;50.144;8.176;2023-04-24T09:58:00;9.30;99.90
17442;DHT22;8838;50.144;8.176;2023-04-24T10:00:28;9.20;99.90
17442;DHT22;8838;50.144;8.176;2023-04-24T10:03:00;9.10;99.90
17442;DHT22;8838;50.144;8.176;2023-04-24T10:05:29;9.00;99.90
17442;DHT22;8838;50.144;8.176;2023-04-24T10:07:57;8.90;99.90
17442;DHT22;8838;50.144;8.176;2023-04-24T10:10:24;8.90;99.90
17442;DHT22;8838;50.144;8.176;2023-04-24T10:12:52;8.70;99.90
17442;DHT22;8838;50.144;8.176;2023-04-24T10:15:21;8.60;99.90
17442;DHT22;8838;50.144;8.176;2023-04-24T10:17:49;8.60;99.90
17442;DHT22;8838;50.144;8.176;2023-04-24T10:20:22;8.60;99.90
17442;DHT22;8838;50.144;8.176;2023-04-24T10:22:50;8.70;99.90
17442;DHT22;8838;50.144;8.176;2023-04-24T10:25:19;8.90;99.90
17442;DHT22;8838;50.144;8.176;2023-04-24T10:27:47;9.00;99.90
17442;DHT22;8838;50.144;8.176;2023-04-24T10:30:15;9.20;99.90
17442;DHT22;8838;50.144;8.176;2023-04-24T10:32:44;9.40;99.90
17442;DHT22;8838;50.144;8.176;2023-04-24T10:35:13;9.50;99.90
17442;DHT22;8838;50.144;8.176;2023-04-24T10:37:43;9.50;99.90
17442;DHT22;8838;50.144;8.176;2023-04-24T10:40:12;9.50;99.90
17442;DHT22;8838;50.144;8.176;2023-04-24T10:42:42;9.60;99.90
17442;DHT22;8838;50.144;8.176;2023-04-24T10:45:16;9.60;99.90
17442;DHT22;8838;50.144;8.176;2023-04-24T10:47:53;9.70;99.90
17442;DHT22;8838;50.144;8.176;2023-04-24T10:50:20;10.10;99.90
17442;DHT22;8838;50.144;8.176;2023-04-24T10:52:47;10.60;99.90
17442;DHT22;8838;50.144;8.176;2023-04-24T10:55:17;11.10;99.90
17442;DHT22;8838;50.144;8.176;2023-04-24T10:58:04;11.10;99.90
17442;DHT22;8838;50.144;8.176;2023-04-24T11:00:31;10.80;99.90
17442;DHT22;8838;50.144;8.176;2023-04-24T11:03:00;10.60;99.90
17442;DHT22;8838;50.144;8.176;2023-04-24T11:05:51;10.40;99.90
17442;DHT22;8838;50.144;8.176;2023-04-24T11:08:23;10.30;99.90
17442;DHT22;8838;50.144;8.176;2023-04-24T11:10:56;10.40;99.90
17442;DHT22;8838;50.144;8.176;2023-04-24T11:13:25;10.40;99.90
17442;DHT22;8838;50.144;8.176;2023-04-24T11:16:20;10.60;99.90
17442;DHT22;8838;50.144;8.176;2023-04-24T11:18:52;11.00;99.90
17442;DHT22;8838;50.144;8.176;2023-04-24T11:21:21;11.70;99.90
17442;DHT22;8838;50.144;8.176;2023-04-24T11:23:48;12.10;99.90
17442;DHT22;8838;50.144;8.176;2023-04-24T11:26:18;12.30;99.90
17442;DHT22;8838;50.144;8.176;2023-04-24T11:28:49;12.30;99.90
17442;DHT22;8838;50.144;8.176;2023-04-24T11:31:35;11.90;99.90
17442;DHT22;8838;50.144;8.176;2023-04-24T11:34:09;11.70;99.90
17442;DHT22;8838;50.144;8.176;2023-04-24T11:36:36;11.20;99.90
17442;DHT22;8838;50.144;8.176;2023-04-24T11:39:04;11.10;99.90
17442;DHT22;8838;50.144;8.176;2023-04-24T11:41:31;11.30;99.90
17442;DHT22;8838;50.144;8.176;2023-04-24T11:43:58;11.70;99.90
17442;DHT22;8838;50.144;8.176;2023-04-24T11:46:28;11.60;99.90
17442;DHT22;8838;50.144;8.176;2023-04-24T11:48:57;11.60;99.90
17442;DHT22;8838;50.144;8.176;2023-04-24T11:51:27;11.30;99.90
17442;DHT22;8838;50.144;8.176;2023-04-24T11:53:54;11.40;99.90
17442;DHT22;8838;50.144;8.176;2023-04-24T11:56:21;11.20;99.90
17442;DHT22;8838;50.144;8.176;2023-04-24T11:58:48;11.30;99.90
17442;DHT22;8838;50.144;8.176;2023-04-24T12:01:15;11.70;99.90
17442;DHT22;8838;50.144;8.176;2023-04-24T12:03:47;12.10;99.90
17442;DHT22;8838;50.144;8.176;2023-04-24T12:06:14;12.30;99.90
17442;DHT22;8838;50.144;8.176;2023-04-24T12:08:46;12.20;99.90
17442;DHT22;8838;50.144;8.176;2023-04-24T12:11:15;12.30;99.90
17442;DHT22;8838;50.144;8.176;2023-04-24T12:13:43;12.60;99.90
17442;DHT22;8838;50.144;8.176;2023-04-24T12:16:10;12.90;99.90
17442;DHT22;8838;50.144;8.176;2023-04-24T12:18:42;12.90;99.90
17442;DHT22;8838;50.144;8.176;2023-04-24T12:21:16;12.50;99.90
17442;DHT22;8838;50.144;8.176;2023-04-24T12:23:44;12.30;99.90
17442;DHT22;8838;50.144;8.176;2023-04-24T12:26:12;12.10;99.90
17442;DHT22;8838;50.144;8.176;2023-04-24T12:28:39;12.20;99.90
17442;DHT22;8838;50.144;8.176;2023-04-24T12:31:06;12.30;99.90
17442;DHT22;8838;50.144;8.176;2023-04-24T12:33:35;12.10;99.90
17442;DHT22;8838;50.144;8.176;2023-04-24T12:36:02;12.10;99.90
17442;DHT22;8838;50.144;8.176;2023-04-24T12:38:29;12.00;99.90
17442;DHT22;8838;50.144;8.176;2023-04-24T12:41:04;12.20;99.90
17442;DHT22;8838;50.144;8.176;2023-04-24T12:43:32;12.80;99.90
17442;DHT22;8838;50.144;8.176;2023-04-24T12:45:59;12.90;99.90
17442;DHT22;8838;50.144;8.176;2023-04-24T12:48:26;12.90;99.90
17442;DHT22;8838;50.144;8.176;2023-04-24T12:50:53;12.80;99.90
17442;DHT22;8838;50.144;8.176;2023-04-24T12:53:21;12.50;99.90
17442;DHT22;8838;50.144;8.176;2023-04-24T12:55:47;12.20;99.90
17442;DHT22;8838;50.144;8.176;2023-04-24T12:58:19;11.70;99.90
17442;DHT22;8838;50.144;8.176;2023-04-24T13:00:46;11.30;99.90
17442;DHT22;8838;50.144;8.176;2023-04-24T13:03:13;11.20;99.90
17442;DHT22;8838;50.144;8.176;2023-04-24T13:05:41;11.40;99.90
17442;DHT22;8838;50.144;8.176;2023-04-24T13:08:08;11.30;99.90
17442;DHT22;8838;50.144;8.176;2023-04-24T13:10:35;11.50;99.90
17442;DHT22;8838;50.144;8.176;2023-04-24T13:13:02;11.60;99.90
17442;DHT22;8838;50.144;8.176;2023-04-24T13:15:31;11.50;99.90
17442;DHT22;8838;50.144;8.176;2023-04-24T13:17:58;11.40;99.90
17442;DHT22;8838;50.144;8.176;2023-04-24T13:20:25;11.30;99.90
17442;DHT22;8838;50.144;8.176;2023-04-24T13:22:51;11.40;99.90
17442;DHT22;8838;50.144;8.176;2023-04-24T13:25:18;11.90;99.90
17442;DHT22;8838;50.144;8.176;2023-04-24T13:27:46;12.50;99.90
17442;DHT22;8838;50.144;8.176;2023-04-24T13:30:13;12.90;99.90
17442;DHT22;8838;50.144;8.176;2023-04-24T13:32:42;13.30;99.90
17442;DHT22;8838;50.144;8.176;2023-04-24T13:35:08;13.20;99.90
17442;DHT22;8838;50.144;8.176;2023-04-24T13:37:36;12.90;99.90
17442;DHT22;8838;50.144;8.176;2023-04-24T13:40:03;12.50;99.90
17442;DHT22;8838;50.144;8.176;2023-04-24T13:42:32;12.10;99.90
17442;DHT22;8838;50.144;8.176;2023-04-24T13:44:59;11.80;99.90
17442;DHT22;8838;50.144;8.176;2023-04-24T13:47:26;11.70;99.90
17442;DHT22;8838;50.144;8.176;2023-04-24T13:49:54;12.10;99.90
17442;DHT22;8838;50.144;8.176;2023-04-24T13:52:21;12.70;99.90
17442;DHT22;8838;50.144;8.176;2023-04-24T13:54:48;13.10;99.90
17442;DHT22;8838;50.144;8.176;2023-04-24T13:57:15;13.00;99.90
17442;DHT22;8838;50.144;8.176;2023-04-24T13:59:42;12.70;99.90
17442;DHT22;8838;50.144;8.176;2023-04-24T14:02:09;12.40;99.90
17442;DHT22;8838;50.144;8.176;2023-04-24T14:04:36;12.10;99.90
17442;DHT22;8838;50.144;8.176;2023-04-24T14:07:05;12.00;99.90
17442;DHT22;8838;50.144;8.176;2023-04-24T14:09:33;12.20;99.90
17442;DHT22;8838;50.144;8.176;2023-04-24T14:12:00;12.40;99.90
17442;DHT22;8838;50.144;8.176;2023-04-24T14:14:28;12.60;99.90
17442;DHT22;8838;50.144;8.176;2023-04-24T14:16:56;12.70;99.90
17442;DHT22;8838;50.144;8.176;2023-04-24T14:19:23;12.70;99.90
17442;DHT22;8838;50.144;8.176;2023-04-24T14:21:50;12.50;99.90
17442;DHT22;8838;50.144;8.176;2023-04-24T14:24:19;12.70;99.90
17442;DHT22;8838;50.144;8.176;2023-04-24T14:26:45;13.10;99.90
17442;DHT22;8838;50.144;8.176;2023-04-24T14:29:12;13.20;99.90
17442;DHT22;8838;50.144;8.176;2023-04-24T14:31:39;13.30;99.90
17442;DHT22;8838;50.144;8.176;2023-04-24T14:34:06;13.00;99.90
17442;DHT22;8838;50.144;8.176;2023-04-24T14:36:33;12.80;99.90
17442;DHT22;8838;50.144;8.176;2023-04-24T14:39:00;12.90;99.90
17442;DHT22;8838;50.144;8.176;2023-04-24T14:41:32;12.60;99.90
17442;DHT22;8838;50.144;8.176;2023-04-24T14:44:01;12.50;99.90
17442;DHT22;8838;50.144;8.176;2023-04-24T14:46:28;12.20;99.90
17442;DHT22;8838;50.144;8.176;2023-04-24T14:48:55;12.20;99.90
17442;DHT22;8838;50.144;8.176;2023-04-24T14:51:22;12.10;99.90
17442;DHT22;8838;50.144;8.176;2023-04-24T14:53:49;12.00;99.90
17442;DHT22;8838;50.144;8.176;2023-04-24T14:56:16;12.10;99.90
17442;DHT22;8838;50.144;8.176;2023-04-24T14:58:45;12.10;99.90
17442;DHT22;8838;50.144;8.176;2023-04-24T15:01:11;12.20;99.90
17442;DHT22;8838;50.144;8.176;2023-04-24T15:03:38;12.10;99.90
17442;DHT22;8838;50.144;8.176;2023-04-24T15:06:05;12.10;99.90
17442;DHT22;8838;50.144;8.176;2023-04-24T15:08:32;12.00;99.90
17442;DHT22;8838;50.144;8.176;2023-04-24T15:10:59;11.80;99.90
17442;DHT22;8838;50.144;8.176;2023-04-24T15:13:26;11.70;99.90
17442;DHT22;8838;50.144;8.176;2023-04-24T15:15:54;11.50;99.90
17442;DHT22;8838;50.144;8.176;2023-04-24T15:18:21;11.50;99.90
17442;DHT22;8838;50.144;8.176;2023-04-24T15:20:48;11.60;99.90
17442;DHT22;8838;50.144;8.176;2023-04-24T15:23:15;11.60;99.90
17442;DHT22;8838;50.144;8.176;2023-04-24T15:25:42;11.60;99.90
17442;DHT22;8838;50.144;8.176;2023-04-24T15:28:09;11.60;99.90
17442;DHT22;8838;50.144;8.176;2023-04-24T15:30:36;11.70;99.90
17442;DHT22;8838;50.144;8.176;2023-04-24T15:33:04;11.90;99.90
17442;DHT22;8838;50.144;8.176;2023-04-24T15:35:32;12.10;99.90
17442;DHT22;8838;50.144;8.176;2023-04-24T15:37:58;12.00;99.90
17442;DHT22;8838;50.144;8.176;2023-04-24T15:40:25;12.00;99.90
17442;DHT22;8838;50.144;8.176;2023-04-24T15:42:53;12.00;99.90
17442;DHT22;8838;50.144;8.176;2023-04-24T15:45:20;11.90;99.90
17442;DHT22;8838;50.144;8.176;2023-04-24T15:47:46;11.80;99.90
17442;DHT22;8838;50.144;8.176;2023-04-24T15:50:15;11.70;99.90
17442;DHT22;8838;50.144;8.176;2023-04-24T15:52:42;11.60;99.90
17442;DHT22;8838;50.144;8.176;2023-04-24T15:55:09;11.80;99.90
17442;DHT22;8838;50.144;8.176;2023-04-24T15:57:37;12.00;99.90